createdAt,value
2018-11-05T00:00:04.784Z,19.8
2018-11-05T00:00:56.066Z,19.8
2018-11-05T00:01:46.410Z,19.8
2018-11-05T00:02:36.225Z,19.8
2018-11-05T00:03:26.531Z,19.8
2018-11-05T00:04:16.827Z,19.8
2018-11-05T00:05:07.277Z,19.8
2018-11-05T00:05:56.927Z,19.8
2018-11-05T00:06:46.885Z,19.8
2018-11-05T00:25:02.347Z,19.9
2018-11-05T00:25:51.661Z,19.8
2018-11-05T00:26:41.663Z,19.8
2018-11-05T00:27:31.476Z,19.8
2018-11-05T00:28:22.613Z,19.8
2018-11-05T00:29:13.066Z,19.8
2018-11-05T00:30:02.069Z,19.8
2018-11-05T00:30:52.574Z,19.8
2018-11-05T00:31:41.150Z,19.8
2018-11-05T00:32:32.201Z,19.8
2018-11-05T00:33:21.439Z,19.8
2018-11-05T00:34:12.078Z,19.8
2018-11-05T00:35:01.673Z,19.8
2018-11-05T00:35:52.143Z,19.8
2018-11-05T00:36:42.078Z,19.8
2018-11-05T00:37:31.820Z,19.8
2018-11-05T00:38:21.240Z,19.8
2018-11-05T00:39:12.222Z,19.8
2018-11-05T00:40:02.967Z,19.8
2018-11-05T00:40:53.048Z,19.8
2018-11-05T00:41:42.355Z,19.8
2018-11-05T00:42:32.848Z,19.8
2018-11-05T00:43:22.619Z,19.9
2018-11-05T00:44:11.498Z,19.8
2018-11-05T00:45:03.850Z,19.8
2018-11-05T00:45:55.591Z,19.8
2018-11-05T00:46:43.295Z,19.8
2018-11-05T00:47:33.617Z,19.8
2018-11-05T00:48:23.237Z,19.8
2018-11-05T00:49:13.032Z,19.8
2018-11-05T00:50:03.902Z,19.8
2018-11-05T00:50:53.497Z,19.8
2018-11-05T00:51:45.124Z,19.8
2018-11-05T00:52:34.404Z,19.8
2018-11-05T00:53:22.944Z,19.8
2018-11-05T00:54:14.394Z,19.8
2018-11-05T00:55:04.313Z,19.8
2018-11-05T00:55:53.817Z,19.8
2018-11-05T00:56:44.394Z,19.8
2018-11-05T00:57:35.210Z,19.8
2018-11-05T00:58:24.391Z,19.8
2018-11-05T00:59:13.875Z,19.8
2018-11-05T01:00:04.316Z,19.8
2018-11-05T01:00:54.909Z,19.8
2018-11-05T01:01:45.661Z,19.8
2018-11-05T01:02:35.174Z,19.8
2018-11-05T01:03:24.276Z,19.8
2018-11-05T01:04:14.643Z,19.8
2018-11-05T01:05:05.674Z,19.8
2018-11-05T01:05:54.168Z,19.8
2018-11-05T01:06:45.108Z,19.8
2018-11-05T01:07:34.903Z,19.8
2018-11-05T01:08:25.481Z,19.8
2018-11-05T01:09:15.144Z,19.8
2018-11-05T01:10:20.556Z,19.8
2018-11-05T01:10:55.711Z,19.8
2018-11-05T01:11:46.283Z,19.8
2018-11-05T01:12:35.433Z,19.8
2018-11-05T01:13:25.838Z,19.8
2018-11-05T01:14:15.441Z,19.8
2018-11-05T01:15:06.058Z,19.8
2018-11-05T01:15:56.053Z,19.8
2018-11-05T01:16:46.439Z,19.8
2018-11-05T01:17:35.068Z,19.8
2018-11-05T01:18:27.186Z,19.8
2018-11-05T01:19:17.178Z,19.8
2018-11-05T01:20:06.611Z,19.8
2018-11-05T01:20:55.735Z,19.8
2018-11-05T01:21:46.537Z,19.8
2018-11-05T01:22:37.195Z,19.8
2018-11-05T01:23:27.260Z,19.8
2018-11-05T01:24:16.345Z,19.8
2018-11-05T01:25:05.520Z,19.8
2018-11-05T01:25:56.935Z,19.8
2018-11-05T01:26:46.585Z,19.8
2018-11-05T01:27:35.807Z,19.8
2018-11-05T01:28:26.762Z,19.8
2018-11-05T01:29:16.315Z,19.8
2018-11-05T01:30:06.505Z,19.8
2018-11-05T01:30:57.707Z,19.8
2018-11-05T01:31:46.780Z,19.8
2018-11-05T01:32:36.997Z,19.8
2018-11-05T01:33:26.549Z,19.8
2018-11-05T01:34:17.014Z,19.8
2018-11-05T01:35:06.067Z,19.8
2018-11-05T01:35:58.266Z,19.8
2018-11-05T01:36:47.336Z,19.8
2018-11-05T01:37:36.897Z,19.8
2018-11-05T01:38:27.634Z,19.8
2018-11-05T01:39:17.149Z,19.8
2018-11-05T01:40:07.039Z,19.8
2018-11-05T01:40:57.547Z,19.8
2018-11-05T01:41:47.905Z,19.8
2018-11-05T01:42:36.955Z,19.8
2018-11-05T01:43:27.520Z,19.8
2018-11-05T01:44:17.859Z,19.8
2018-11-05T01:45:06.704Z,19.8
2018-11-05T01:45:58.471Z,19.8
2018-11-05T01:46:48.106Z,19.8
2018-11-05T01:47:37.940Z,19.8
2018-11-05T01:48:27.561Z,19.8
2018-11-05T01:49:18.206Z,19.8
2018-11-05T01:50:07.605Z,19.8
2018-11-05T01:50:58.111Z,19.8
2018-11-05T01:51:49.208Z,19.8
2018-11-05T01:52:38.861Z,19.7
2018-11-05T01:53:28.533Z,19.8
2018-11-05T01:54:18.579Z,19.7
2018-11-05T01:55:07.620Z,19.8
2018-11-05T01:55:58.380Z,19.8
2018-11-05T01:56:49.620Z,19.7
2018-11-05T01:57:38.016Z,19.8
2018-11-05T01:58:30.268Z,19.7
2018-11-05T01:59:18.535Z,19.7
2018-11-05T02:00:09.552Z,19.8
2018-11-05T02:00:59.407Z,19.7
2018-11-05T02:01:49.968Z,19.8
2018-11-05T02:02:39.332Z,19.8
2018-11-05T02:03:28.966Z,19.8
2018-11-05T02:04:19.897Z,19.8
2018-11-05T02:05:08.922Z,19.8
2018-11-05T02:06:00.201Z,19.8
2018-11-05T02:06:49.824Z,19.8
2018-11-05T02:07:39.782Z,19.8
2018-11-05T02:08:29.062Z,19.8
2018-11-05T02:09:18.447Z,19.7
2018-11-05T02:10:09.957Z,19.8
2018-11-05T02:10:58.892Z,19.8
2018-11-05T02:11:50.679Z,19.7
2018-11-05T02:12:41.264Z,19.7
2018-11-05T02:13:31.903Z,19.8
2018-11-05T02:14:20.259Z,19.8
2018-11-05T02:15:09.996Z,19.8
2018-11-05T02:16:01.728Z,19.8
2018-11-05T02:16:50.761Z,19.8
2018-11-05T02:17:39.864Z,19.8
2018-11-05T02:18:29.823Z,19.8
2018-11-05T02:19:20.786Z,19.8
2018-11-05T02:20:10.866Z,19.7
2018-11-05T02:21:00.015Z,19.7
2018-11-05T02:21:49.649Z,19.7
2018-11-05T02:22:41.208Z,19.8
2018-11-05T02:23:30.903Z,19.7
2018-11-05T02:24:21.550Z,19.7
2018-11-05T02:25:10.149Z,19.8
2018-11-05T02:25:59.578Z,19.7
2018-11-05T02:26:52.441Z,19.7
2018-11-05T02:27:38.469Z,19.7
2018-11-05T02:28:30.365Z,19.8
2018-11-05T02:29:20.301Z,19.8
2018-11-05T02:30:10.724Z,19.7
2018-11-05T02:31:01.956Z,19.7
2018-11-05T02:31:51.708Z,19.7
2018-11-05T02:32:41.693Z,19.7
2018-11-05T02:33:30.716Z,19.7
2018-11-05T02:34:22.301Z,19.7
2018-11-05T02:35:10.683Z,19.7
2018-11-05T02:36:00.785Z,19.8
2018-11-05T02:36:52.371Z,19.7
2018-11-05T02:37:41.980Z,19.7
2018-11-05T02:38:31.820Z,19.7
2018-11-05T02:39:21.763Z,19.7
2018-11-05T02:40:12.261Z,19.7
2018-11-05T02:41:02.692Z,19.7
2018-11-05T02:41:51.745Z,19.7
2018-11-05T02:42:41.628Z,19.7
2018-11-05T02:43:32.691Z,19.7
2018-11-05T02:44:22.603Z,19.7
2018-11-05T02:45:11.744Z,19.8
2018-11-05T02:46:03.015Z,19.7
2018-11-05T02:46:52.180Z,19.6
2018-11-05T02:47:42.870Z,19.7
2018-11-05T02:48:32.112Z,19.7
2018-11-05T02:49:22.944Z,19.6
2018-11-05T02:50:12.455Z,19.6
2018-11-05T02:51:01.860Z,19.6
2018-11-05T02:51:51.782Z,19.7
2018-11-05T02:52:42.319Z,19.7
2018-11-05T02:53:34.117Z,19.8
2018-11-05T02:54:22.737Z,19.8
2018-11-05T02:55:12.334Z,19.8
2018-11-05T02:56:02.316Z,19.7
2018-11-05T02:56:53.053Z,19.7
2018-11-05T02:57:43.540Z,19.6
2018-11-05T02:58:33.304Z,19.7
2018-11-05T02:59:23.179Z,19.7
2018-11-05T03:00:12.728Z,19.8
2018-11-05T03:01:04.397Z,19.7
2018-11-05T03:01:52.660Z,19.6
2018-11-05T03:02:42.878Z,19.6
2018-11-05T03:03:34.934Z,19.7
2018-11-05T03:04:22.354Z,19.6
2018-11-05T03:05:14.064Z,19.7
2018-11-05T03:06:03.795Z,19.6
2018-11-05T03:06:53.804Z,19.6
2018-11-05T03:07:43.711Z,19.7
2018-11-05T03:08:33.504Z,19.6
2018-11-05T03:09:24.937Z,19.7
2018-11-05T03:10:13.991Z,19.7
2018-11-05T03:11:03.796Z,19.6
2018-11-05T03:11:54.371Z,19.6
2018-11-05T03:12:43.961Z,19.6
2018-11-05T03:13:34.354Z,19.7
2018-11-05T03:14:24.815Z,19.6
2018-11-05T03:15:14.681Z,19.7
2018-11-05T03:16:03.718Z,19.6
2018-11-05T03:16:54.611Z,19.6
2018-11-05T03:17:44.971Z,19.6
2018-11-05T03:18:36.048Z,19.7
2018-11-05T03:19:24.398Z,19.7
2018-11-05T03:20:14.291Z,19.7
2018-11-05T03:21:05.649Z,19.6
2018-11-05T03:21:55.621Z,19.7
2018-11-05T03:22:45.122Z,19.6
2018-11-05T03:23:36.171Z,19.6
2018-11-05T03:24:25.923Z,19.6
2018-11-05T03:25:15.163Z,19.6
2018-11-05T03:26:06.227Z,19.6
2018-11-05T03:26:55.388Z,19.7
2018-11-05T03:27:46.242Z,19.7
2018-11-05T03:28:36.908Z,19.6
2018-11-05T03:29:25.867Z,19.7
2018-11-05T03:30:16.938Z,19.7
2018-11-05T03:31:06.256Z,19.7
2018-11-05T03:31:55.353Z,19.6
2018-11-05T03:32:46.528Z,19.6
2018-11-05T03:33:36.048Z,19.6
2018-11-05T03:34:24.576Z,19.6
2018-11-05T03:35:16.294Z,19.7
2018-11-05T03:36:08.486Z,19.7
2018-11-05T03:36:57.465Z,19.6
2018-11-05T03:37:46.737Z,19.6
2018-11-05T03:38:36.830Z,19.6
2018-11-05T03:39:26.108Z,19.6
2018-11-05T03:40:17.193Z,19.6
2018-11-05T03:41:06.034Z,19.6
2018-11-05T03:41:56.105Z,19.6
2018-11-05T03:42:46.192Z,19.7
2018-11-05T03:43:36.366Z,19.6
2018-11-05T03:44:26.552Z,19.6
2018-11-05T03:45:16.620Z,19.6
2018-11-05T03:46:07.569Z,19.6
2018-11-05T03:46:57.779Z,19.6
2018-11-05T03:47:45.959Z,19.6
2018-11-05T03:48:37.229Z,19.6
2018-11-05T03:49:27.122Z,19.6
2018-11-05T03:50:17.397Z,19.6
2018-11-05T03:51:06.549Z,19.6
2018-11-05T03:51:57.207Z,19.6
2018-11-05T03:52:47.241Z,19.6
2018-11-05T03:53:36.887Z,19.6
2018-11-05T03:54:27.292Z,19.6
2018-11-05T03:55:17.439Z,19.6
2018-11-05T03:56:10.372Z,19.6
2018-11-05T03:56:58.101Z,19.6
2018-11-05T03:57:48.509Z,19.6
2018-11-05T03:58:36.839Z,19.6
2018-11-05T03:59:27.979Z,19.6
2018-11-05T04:00:19.201Z,19.6
2018-11-05T04:01:07.947Z,19.6
2018-11-05T04:01:57.901Z,19.7
2018-11-05T04:02:48.056Z,19.5
2018-11-05T04:03:38.473Z,19.6
2018-11-05T04:04:29.445Z,19.6
2018-11-05T04:05:18.926Z,19.6
2018-11-05T04:06:09.479Z,19.6
2018-11-05T04:06:59.003Z,19.6
2018-11-05T04:07:47.845Z,19.6
2018-11-05T04:08:38.796Z,19.6
2018-11-05T04:09:27.388Z,19.6
2018-11-05T04:10:16.848Z,19.6
2018-11-05T04:11:09.350Z,19.6
2018-11-05T04:11:58.726Z,19.6
2018-11-05T04:12:49.750Z,19.6
2018-11-05T04:13:38.724Z,19.6
2018-11-05T04:14:28.326Z,19.6
2018-11-05T04:15:20.843Z,19.6
2018-11-05T04:16:11.474Z,19.6
2018-11-05T04:16:59.391Z,19.6
2018-11-05T04:17:49.103Z,19.6
2018-11-05T04:18:37.494Z,19.6
2018-11-05T04:19:28.436Z,19.6
2018-11-05T04:20:19.547Z,19.6
2018-11-05T04:21:08.945Z,19.6
2018-11-05T04:21:59.680Z,19.6
2018-11-05T04:22:50.555Z,19.6
2018-11-05T04:23:39.847Z,19.6
2018-11-05T04:24:29.467Z,19.6
2018-11-05T04:25:19.637Z,19.6
2018-11-05T04:26:09.374Z,19.6
2018-11-05T04:26:58.637Z,19.5
2018-11-05T04:27:51.746Z,19.6
2018-11-05T04:28:40.166Z,19.5
2018-11-05T04:29:30.569Z,19.5
2018-11-05T04:30:18.841Z,19.5
2018-11-05T04:31:09.955Z,19.5
2018-11-05T04:31:58.979Z,19.5
2018-11-05T04:32:50.018Z,19.5
2018-11-05T04:33:40.654Z,19.5
2018-11-05T04:34:30.098Z,19.5
2018-11-05T04:35:20.151Z,19.5
2018-11-05T04:36:08.989Z,19.5
2018-11-05T04:54:13.915Z,19.4
2018-11-05T04:55:03.510Z,19.4
2018-11-05T04:55:53.093Z,19.4
2018-11-05T04:56:42.936Z,19.4
2018-11-05T04:57:32.845Z,19.4
2018-11-05T04:58:23.503Z,19.4
2018-11-05T04:59:14.465Z,19.4
2018-11-05T05:00:03.626Z,19.4
2018-11-05T05:00:53.323Z,19.4
2018-11-05T05:01:43.398Z,19.4
2018-11-05T05:02:33.458Z,19.4
2018-11-05T05:03:24.760Z,19.4
2018-11-05T05:04:14.091Z,19.4
2018-11-05T05:05:03.672Z,19.4
2018-11-05T05:05:53.671Z,19.4
2018-11-05T05:06:43.359Z,19.4
2018-11-05T05:07:33.286Z,19.4
2018-11-05T05:08:23.696Z,19.4
2018-11-05T05:09:13.733Z,19.4
2018-11-05T05:10:04.645Z,19.4
2018-11-05T05:10:52.380Z,19.4
2018-11-05T05:11:44.535Z,19.4
2018-11-05T05:12:34.804Z,19.4
2018-11-05T05:13:25.637Z,19.4
2018-11-05T05:14:14.837Z,19.4
2018-11-05T05:15:05.182Z,19.4
2018-11-05T05:15:55.689Z,19.4
2018-11-05T05:16:46.046Z,19.4
2018-11-05T05:17:35.664Z,19.3
2018-11-05T05:18:25.695Z,19.4
2018-11-05T05:19:16.112Z,19.4
2018-11-05T05:20:05.474Z,19.4
2018-11-05T05:20:56.592Z,19.4
2018-11-05T05:21:45.590Z,19.4
2018-11-05T05:22:38.219Z,19.4
2018-11-05T05:23:25.356Z,19.4
2018-11-05T05:24:16.131Z,19.4
2018-11-05T05:25:06.444Z,19.3
2018-11-05T05:25:55.606Z,19.4
2018-11-05T05:26:46.534Z,19.4
2018-11-05T05:27:35.923Z,19.3
2018-11-05T05:28:25.328Z,19.4
2018-11-05T05:29:16.269Z,19.4
2018-11-05T05:30:05.624Z,19.4
2018-11-05T05:30:56.388Z,19.3
2018-11-05T05:31:45.885Z,19.4
2018-11-05T05:32:36.708Z,19.3
2018-11-05T05:33:25.434Z,19.3
2018-11-05T05:34:16.235Z,19.4
2018-11-05T05:35:06.698Z,19.3
2018-11-05T05:35:55.868Z,19.3
2018-11-05T05:36:46.582Z,19.3
2018-11-05T05:37:35.253Z,19.3
2018-11-05T05:38:26.633Z,19.3
2018-11-05T05:39:17.225Z,19.3
2018-11-05T05:40:06.551Z,19.3
2018-11-05T05:40:58.327Z,19.3
2018-11-05T05:41:46.537Z,19.3
2018-11-05T05:42:37.153Z,19.3
2018-11-05T05:43:27.154Z,19.3
2018-11-05T05:44:17.435Z,19.3
2018-11-05T05:45:07.380Z,19.3
2018-11-05T05:45:56.542Z,19.3
2018-11-05T05:46:46.277Z,19.3
2018-11-05T05:47:36.552Z,19.3
2018-11-05T05:48:27.782Z,19.3
2018-11-05T05:49:16.765Z,19.3
2018-11-05T05:50:09.462Z,19.3
2018-11-05T05:50:56.992Z,19.3
2018-11-05T05:51:47.027Z,19.3
2018-11-05T05:52:37.492Z,19.3
2018-11-05T05:53:27.737Z,19.3
2018-11-05T05:54:17.129Z,19.3
2018-11-05T05:55:07.689Z,19.3
2018-11-05T05:55:57.887Z,19.3
2018-11-05T05:56:46.780Z,19.3
2018-11-05T05:57:37.749Z,19.3
2018-11-05T05:58:27.494Z,19.3
2018-11-05T05:59:16.512Z,19.3
2018-11-05T06:00:10.849Z,19.3
2018-11-05T06:00:56.887Z,19.3
2018-11-05T06:01:47.476Z,19.3
2018-11-05T06:02:37.321Z,19.3
2018-11-05T06:03:27.404Z,19.3
2018-11-05T06:04:17.914Z,19.3
2018-11-05T06:05:08.266Z,19.3
2018-11-05T06:05:59.330Z,19.3
2018-11-05T06:06:49.293Z,19.3
2018-11-05T06:07:38.556Z,19.3
2018-11-05T06:08:27.153Z,19.3
2018-11-05T06:09:18.378Z,19.2
2018-11-05T06:10:08.403Z,19.2
2018-11-05T06:10:58.160Z,19.3
2018-11-05T06:11:47.528Z,19.3
2018-11-05T06:12:39.413Z,19.3
2018-11-05T06:13:28.403Z,19.3
2018-11-05T06:14:18.755Z,19.3
2018-11-05T06:15:08.776Z,19.3
2018-11-05T06:16:01.800Z,19.3
2018-11-05T06:16:48.013Z,19.3
2018-11-05T06:17:39.705Z,19.2
2018-11-05T06:18:28.779Z,19.2
2018-11-05T06:19:19.288Z,19.3
2018-11-05T06:20:08.485Z,19.2
2018-11-05T06:20:59.141Z,19.2
2018-11-05T06:21:52.458Z,19.2
2018-11-05T06:22:39.755Z,19.2
2018-11-05T06:23:29.476Z,19.2
2018-11-05T06:24:18.848Z,19.2
2018-11-05T06:25:09.447Z,19.3
2018-11-05T06:26:00.806Z,19.2
2018-11-05T06:26:48.676Z,19.2
2018-11-05T06:27:40.395Z,19.2
2018-11-05T06:28:32.252Z,19.2
2018-11-05T06:29:19.985Z,19.2
2018-11-05T06:30:10.835Z,19.2
2018-11-05T06:31:01.296Z,19.2
2018-11-05T06:31:50.595Z,19.2
2018-11-05T06:32:42.708Z,19.2
2018-11-05T06:33:31.408Z,19.2
2018-11-05T06:34:20.285Z,19.3
2018-11-05T06:35:11.145Z,19.2
2018-11-05T06:36:00.892Z,19.2
2018-11-05T06:36:51.159Z,19.1
2018-11-05T06:37:41.469Z,19.2
2018-11-05T06:38:30.378Z,19.2
2018-11-05T06:39:21.302Z,19.2
2018-11-05T06:40:10.295Z,19.2
2018-11-05T06:41:02.131Z,19.2
2018-11-05T06:41:52.936Z,19.2
2018-11-05T06:42:40.885Z,19.2
2018-11-05T06:43:32.282Z,19.2
2018-11-05T06:44:24.015Z,19.2
2018-11-05T06:45:11.511Z,19.2
2018-11-05T06:46:02.191Z,19.2
2018-11-05T06:46:51.619Z,19.2
2018-11-05T06:47:41.068Z,19.1
2018-11-05T06:48:32.073Z,19.1
2018-11-05T06:49:21.022Z,19.2
2018-11-05T06:50:10.966Z,19.2
2018-11-05T06:51:02.676Z,19.2
2018-11-05T06:51:51.398Z,19.1
2018-11-05T06:52:42.103Z,19.1
2018-11-05T06:53:31.680Z,19.2
2018-11-05T06:54:21.790Z,19.1
2018-11-05T06:55:11.734Z,19.2
2018-11-05T06:56:03.129Z,19.2
2018-11-05T06:56:51.655Z,19.1
2018-11-05T06:57:44.362Z,19.1
2018-11-05T06:58:32.852Z,19.2
2018-11-05T06:59:21.931Z,19.2
2018-11-05T07:00:12.060Z,19.1
2018-11-05T07:01:02.870Z,19.2
2018-11-05T07:01:52.489Z,19.1
2018-11-05T07:02:41.962Z,19.2
2018-11-05T07:03:31.654Z,19.1
2018-11-05T07:04:22.513Z,19.1
2018-11-05T07:05:11.298Z,19.1
2018-11-05T07:06:05.519Z,19.1
2018-11-05T07:06:52.184Z,19.1
2018-11-05T07:07:42.704Z,19.1
2018-11-05T07:08:32.176Z,19.1
2018-11-05T07:09:21.991Z,19.1
2018-11-05T07:10:12.782Z,19.2
2018-11-05T07:11:01.803Z,19.1
2018-11-05T07:11:52.465Z,19.1
2018-11-05T07:12:43.431Z,19.1
2018-11-05T07:13:33.584Z,19.2
2018-11-05T07:14:22.548Z,19.1
2018-11-05T07:15:13.121Z,19.1
2018-11-05T07:16:02.398Z,19.1
2018-11-05T07:16:53.692Z,19.1
2018-11-05T07:17:44.223Z,19.1
2018-11-05T07:18:36.333Z,19.1
2018-11-05T07:19:25.049Z,19.1
2018-11-05T07:20:12.865Z,19.1
2018-11-05T07:21:03.044Z,19.1
2018-11-05T07:21:51.573Z,19.1
2018-11-05T07:22:44.328Z,19.1
2018-11-05T07:23:34.159Z,19.1
2018-11-05T07:24:23.590Z,19.1
2018-11-05T07:25:13.300Z,19.1
2018-11-05T07:26:02.783Z,19.1
2018-11-05T07:26:53.658Z,19.1
2018-11-05T07:27:45.897Z,19.1
2018-11-05T07:28:34.178Z,19.1
2018-11-05T07:29:23.970Z,19.1
2018-11-05T07:30:14.258Z,19.1
2018-11-05T07:31:04.185Z,19.1
2018-11-05T07:31:53.836Z,19.1
2018-11-05T07:32:44.238Z,19.1
2018-11-05T07:33:38.431Z,19.1
2018-11-05T07:34:27.595Z,19.1
2018-11-05T07:35:13.750Z,19.1
2018-11-05T07:36:04.115Z,19.1
2018-11-05T07:36:54.635Z,19.1
2018-11-05T07:37:44.923Z,19.1
2018-11-05T07:38:35.151Z,19.1
2018-11-05T07:39:24.887Z,19.1
2018-11-05T07:40:14.783Z,19.1
2018-11-05T07:41:04.457Z,19.1
2018-11-05T07:41:54.252Z,19.1
2018-11-05T07:42:45.623Z,19.1
2018-11-05T07:43:36.078Z,19.1
2018-11-05T07:44:25.757Z,19.1
2018-11-05T07:45:15.506Z,19.1
2018-11-05T07:46:06.131Z,19.1
2018-11-05T07:46:54.662Z,19.1
2018-11-05T07:47:45.267Z,19.1
2018-11-05T07:48:35.446Z,19
2018-11-05T07:49:25.799Z,19.1
2018-11-05T07:50:17.995Z,19.1
2018-11-05T07:51:06.972Z,19.1
2018-11-05T07:51:55.400Z,19.1
2018-11-05T07:52:46.496Z,19.1
2018-11-05T07:53:35.399Z,19.1
2018-11-05T07:54:26.462Z,19.1
2018-11-05T07:55:15.372Z,19.1
2018-11-05T07:56:06.722Z,19.1
2018-11-05T07:56:59.662Z,19.1
2018-11-05T07:57:46.602Z,19.1
2018-11-05T07:58:37.270Z,19.1
2018-11-05T07:59:25.934Z,19.1
2018-11-05T08:00:18.006Z,19.1
2018-11-05T08:01:07.214Z,19.1
2018-11-05T08:01:56.348Z,19.1
2018-11-05T08:02:48.105Z,19.1
2018-11-05T08:03:35.610Z,19.1
2018-11-05T08:04:28.563Z,19.1
2018-11-05T08:05:17.407Z,19.1
2018-11-05T08:06:06.817Z,19.1
2018-11-05T08:06:57.156Z,19.1
2018-11-05T08:07:48.083Z,19.1
2018-11-05T08:08:39.971Z,19.1
2018-11-05T08:09:28.020Z,19.1
2018-11-05T08:10:17.571Z,19.1
2018-11-05T08:11:07.888Z,19
2018-11-05T08:11:57.576Z,19.1
2018-11-05T08:12:48.323Z,19.1
2018-11-05T08:13:36.408Z,19.1
2018-11-05T08:14:30.345Z,19.1
2018-11-05T08:15:17.399Z,19.1
2018-11-05T08:16:07.487Z,19.1
2018-11-05T08:16:57.388Z,19.1
2018-11-05T08:17:47.282Z,19.1
2018-11-05T08:18:37.606Z,19.1
2018-11-05T08:19:28.541Z,19.1
2018-11-05T08:20:17.985Z,19.1
2018-11-05T08:21:08.475Z,19.1
2018-11-05T08:21:58.965Z,19.1
2018-11-05T08:22:47.288Z,19.1
2018-11-05T08:23:39.069Z,19.1
2018-11-05T08:24:27.688Z,19.1
2018-11-05T08:25:18.650Z,19.1
2018-11-05T08:26:09.309Z,19.1
2018-11-05T08:26:59.618Z,19.1
2018-11-05T08:27:49.687Z,19.1
2018-11-05T08:28:38.569Z,19.1
2018-11-05T08:29:28.319Z,19.1
2018-11-05T08:30:18.081Z,19.1
2018-11-05T08:31:08.044Z,19.1
2018-11-05T08:31:59.707Z,19.1
2018-11-05T08:32:49.840Z,19.1
2018-11-05T08:33:38.820Z,19.1
2018-11-05T08:34:30.182Z,19.1
2018-11-05T08:35:18.659Z,19.1
2018-11-05T08:36:09.609Z,19.1
2018-11-05T08:37:00.039Z,19.1
2018-11-05T08:37:49.738Z,19.1
2018-11-05T08:38:39.324Z,19.1
2018-11-05T08:39:30.356Z,19.1
2018-11-05T08:40:22.382Z,19.1
2018-11-05T08:41:09.864Z,19.1
2018-11-05T08:41:59.682Z,19.1
2018-11-05T08:42:49.949Z,19.1
2018-11-05T08:43:39.598Z,19.1
2018-11-05T08:44:29.628Z,19.1
2018-11-05T08:45:20.782Z,19.1
2018-11-05T08:46:09.915Z,19.1
2018-11-05T08:47:03.066Z,19.1
2018-11-05T08:47:49.485Z,19.1
2018-11-05T08:48:39.765Z,19.1
2018-11-05T08:49:30.946Z,19.1
2018-11-05T08:50:23.950Z,19.1
2018-11-05T08:51:19.014Z,19.1
2018-11-05T08:52:00.275Z,19.1
2018-11-05T09:08:43.356Z,19.1
2018-11-05T09:09:33.807Z,19.1
2018-11-05T09:10:27.463Z,19.1
2018-11-05T09:11:17.646Z,19.1
2018-11-05T09:12:04.606Z,19.1
2018-11-05T09:12:54.475Z,19.1
2018-11-05T09:13:45.192Z,19.1
2018-11-05T09:14:34.010Z,19.1
2018-11-05T09:15:25.158Z,19.1
2018-11-05T09:16:16.439Z,19.1
2018-11-05T09:17:04.701Z,19.1
2018-11-05T09:17:54.341Z,19.1
2018-11-05T09:18:44.815Z,19.1
2018-11-05T09:19:33.639Z,19.1
2018-11-05T09:20:25.043Z,19.1
2018-11-05T09:21:14.420Z,19.1
2018-11-05T09:22:05.402Z,19.1
2018-11-05T09:22:54.624Z,19.1
2018-11-05T09:23:45.442Z,19.1
2018-11-05T09:24:34.826Z,19.1
2018-11-05T09:25:25.302Z,19.1
2018-11-05T09:26:14.015Z,19.1
2018-11-05T09:27:04.639Z,19.1
2018-11-05T09:27:57.046Z,19.1
2018-11-05T09:28:45.571Z,19.1
2018-11-05T09:29:35.389Z,19.1
2018-11-05T09:30:26.211Z,19.1
2018-11-05T09:31:15.621Z,19.1
2018-11-05T09:32:05.427Z,19.1
2018-11-05T09:32:55.144Z,19.1
2018-11-05T09:33:44.515Z,19.1
2018-11-05T09:34:35.747Z,19.1
2018-11-05T09:35:25.773Z,19.1
2018-11-05T09:36:15.882Z,19.1
2018-11-05T09:37:05.689Z,19.2
2018-11-05T09:37:55.434Z,19.1
2018-11-05T09:38:46.636Z,19.1
2018-11-05T09:39:35.011Z,19.1
2018-11-05T09:40:25.381Z,19.2
2018-11-05T09:41:15.594Z,19.1
2018-11-05T09:42:07.037Z,19.1
2018-11-05T09:42:59.532Z,19.1
2018-11-05T09:43:45.695Z,19.1
2018-11-05T09:44:36.080Z,19.1
2018-11-05T09:45:26.716Z,19.1
2018-11-05T09:46:16.303Z,19.1
2018-11-05T09:47:06.213Z,19.2
2018-11-05T09:47:57.207Z,19.1
2018-11-05T09:48:46.603Z,19.1
2018-11-05T09:49:38.843Z,19.1
2018-11-05T09:50:28.139Z,19.1
2018-11-05T09:51:17.753Z,19.1
2018-11-05T09:52:06.882Z,19.2
2018-11-05T09:52:57.175Z,19.1
2018-11-05T09:53:47.283Z,19.1
2018-11-05T09:54:37.952Z,19.2
2018-11-05T09:55:28.052Z,19.1
2018-11-05T09:56:18.658Z,19.1
2018-11-05T09:57:08.269Z,19.1
2018-11-05T09:57:57.055Z,19.1
2018-11-05T09:58:48.587Z,19.2
2018-11-05T09:59:38.265Z,19.1
2018-11-05T10:00:28.084Z,19.1
2018-11-05T10:01:18.165Z,19.1
2018-11-05T10:02:07.873Z,19.1
2018-11-05T10:03:02.410Z,19.1
2018-11-05T10:03:53.383Z,19.1
2018-11-05T10:04:43.756Z,19.1
2018-11-05T10:05:29.022Z,19.1
2018-11-05T10:06:16.922Z,19.1
2018-11-05T10:07:08.681Z,19.2
2018-11-05T10:07:59.492Z,19.1
2018-11-05T10:08:48.525Z,19.2
2018-11-05T10:09:40.512Z,19.1
2018-11-05T10:10:33.214Z,19.1
2018-11-05T10:11:18.959Z,19.1
2018-11-05T10:12:09.759Z,19.1
2018-11-05T10:12:59.239Z,19.1
2018-11-05T10:13:50.146Z,19.2
2018-11-05T10:14:38.168Z,19.1
2018-11-05T10:15:30.315Z,19.1
2018-11-05T10:16:19.172Z,19.2
2018-11-05T10:17:09.794Z,19.2
2018-11-05T10:18:00.083Z,19.1
2018-11-05T10:18:48.991Z,19.1
2018-11-05T10:19:39.704Z,19.2
2018-11-05T10:20:28.153Z,19.2
2018-11-05T10:21:18.978Z,19.1
2018-11-05T10:22:07.908Z,19.2
2018-11-05T10:22:58.563Z,19.1
2018-11-05T10:23:49.926Z,19.1
2018-11-05T10:24:40.526Z,19.2
2018-11-05T10:25:28.640Z,19.3
2018-11-05T10:26:20.183Z,19.1
2018-11-05T10:27:09.370Z,19.2
2018-11-05T10:27:59.300Z,19.2
2018-11-05T10:28:47.927Z,19.1
2018-11-05T10:29:40.212Z,19.1
2018-11-05T10:30:30.405Z,19.2
2018-11-05T10:31:19.328Z,19.1
2018-11-05T10:32:09.703Z,19.2
2018-11-05T10:33:01.109Z,19.2
2018-11-05T10:33:50.903Z,19.1
2018-11-05T10:34:40.522Z,19.1
2018-11-05T10:35:28.567Z,19.2
2018-11-05T10:36:19.714Z,19.2
2018-11-05T10:37:10.459Z,19.1
2018-11-05T10:37:59.316Z,19.1
2018-11-05T10:38:50.462Z,19.1
2018-11-05T10:39:40.317Z,19.2
2018-11-05T10:40:33.124Z,19.2
2018-11-05T10:41:21.116Z,19.1
2018-11-05T10:42:11.154Z,19.1
2018-11-05T10:43:00.409Z,19.1
2018-11-05T10:43:52.639Z,19.2
2018-11-05T10:44:41.259Z,19.1
2018-11-05T10:45:31.452Z,19.1
2018-11-05T10:46:24.418Z,19.2
2018-11-05T10:47:10.365Z,19.2
2018-11-05T10:48:01.427Z,19.1
2018-11-05T10:48:50.879Z,19.1
2018-11-05T10:49:41.990Z,19.3
2018-11-05T10:50:33.825Z,19.1
2018-11-05T10:51:24.409Z,19.1
2018-11-05T10:52:19.535Z,19.2
2018-11-05T10:53:02.264Z,19.2
2018-11-05T10:53:52.440Z,19.2
2018-11-05T10:54:42.934Z,19.2
2018-11-05T10:55:32.706Z,19.2
2018-11-05T10:56:21.494Z,19.2
2018-11-05T10:57:13.697Z,19.2
2018-11-05T10:58:04.024Z,19.2
2018-11-05T10:58:52.431Z,19.1
2018-11-05T10:59:43.191Z,19.2
2018-11-05T11:00:31.701Z,19.2
2018-11-05T11:01:22.320Z,19.2
2018-11-05T11:02:12.817Z,19.2
2018-11-05T11:03:03.219Z,19.2
2018-11-05T11:03:53.878Z,19.1
2018-11-05T11:04:42.116Z,19.2
2018-11-05T11:05:32.363Z,19.2
2018-11-05T11:06:23.205Z,19.1
2018-11-05T11:07:13.485Z,19.2
2018-11-05T11:08:01.530Z,19.2
2018-11-05T11:08:53.365Z,19.2
2018-11-05T11:09:43.948Z,19.2
2018-11-05T11:10:32.923Z,19.2
2018-11-05T11:11:22.025Z,19.1
2018-11-05T11:12:13.520Z,19.1
2018-11-05T11:13:02.905Z,19.2
2018-11-05T11:13:53.065Z,19.2
2018-11-05T11:14:44.252Z,19.2
2018-11-05T11:15:34.529Z,19.2
2018-11-05T11:16:23.280Z,19.1
2018-11-05T11:17:13.766Z,19.2
2018-11-05T11:18:03.110Z,19.2
2018-11-05T11:18:53.290Z,19.2
2018-11-05T11:19:42.377Z,19.2
2018-11-05T11:20:33.717Z,19.2
2018-11-05T11:21:24.790Z,19.2
2018-11-05T11:22:15.181Z,19.2
2018-11-05T11:23:02.756Z,19.2
2018-11-05T11:23:54.346Z,19.2
2018-11-05T11:24:43.802Z,19.3
2018-11-05T11:25:33.994Z,19.2
2018-11-05T11:26:23.384Z,19.2
2018-11-05T11:27:12.915Z,19.2
2018-11-05T11:28:09.665Z,19.2
2018-11-05T11:28:56.213Z,19.2
2018-11-05T11:29:44.888Z,19.2
2018-11-05T11:30:35.450Z,19.2
2018-11-05T11:31:24.645Z,19.2
2018-11-05T11:32:14.169Z,19.2
2018-11-05T11:33:03.697Z,19.2
2018-11-05T11:33:54.544Z,19.2
2018-11-05T11:34:44.502Z,19.2
2018-11-05T11:35:34.371Z,19.2
2018-11-05T11:36:26.083Z,19.2
2018-11-05T11:37:16.024Z,19.2
2018-11-05T11:38:04.181Z,19.2
2018-11-05T11:38:55.716Z,19.3
2018-11-05T11:39:45.623Z,19.2
2018-11-05T11:40:35.988Z,19.2
2018-11-05T11:41:26.004Z,19.2
2018-11-05T11:42:15.202Z,19.2
2018-11-05T11:43:04.911Z,19.2
2018-11-05T11:43:55.862Z,19.2
2018-11-05T11:44:46.898Z,19.2
2018-11-05T11:45:35.138Z,19.2
2018-11-05T11:46:25.768Z,19.2
2018-11-05T11:47:15.614Z,19.3
2018-11-05T11:48:05.568Z,19.2
2018-11-05T11:48:56.771Z,19.2
2018-11-05T11:49:45.793Z,19.2
2018-11-05T11:50:36.659Z,19.3
2018-11-05T11:51:26.761Z,19.3
2018-11-05T11:52:16.143Z,19.3
2018-11-05T11:53:07.839Z,19.2
2018-11-05T11:53:56.745Z,19.2
2018-11-05T11:54:46.695Z,19.2
2018-11-05T11:55:36.913Z,19.2
2018-11-05T11:56:26.354Z,19.3